createdAt,value
2019-03-11T00:01:55.170Z,4.37
2019-03-11T00:04:43.019Z,3.60
2019-03-11T00:07:31.904Z,4.30
2019-03-11T00:10:26.287Z,5.10
2019-03-11T00:13:14.624Z,4.33
2019-03-11T00:16:01.485Z,5.50
2019-03-11T00:18:48.010Z,4.83
2019-03-11T00:21:35.326Z,4.70
2019-03-11T00:24:22.659Z,4.13
2019-03-11T00:27:09.067Z,5.10
2019-03-11T00:29:56.517Z,4.43
2019-03-11T00:32:42.922Z,4.33
2019-03-11T00:35:29.471Z,4.37
2019-03-11T00:38:16.686Z,3.60
2019-03-11T00:41:03.470Z,3.90
2019-03-11T00:43:50.368Z,3.90
2019-03-11T00:46:37.469Z,3.73
2019-03-11T00:49:24.306Z,4.10
2019-03-11T00:52:10.794Z,3.63
2019-03-11T00:54:57.566Z,4.30
2019-03-11T00:57:44.278Z,3.70
2019-03-11T01:00:35.602Z,3.70
2019-03-11T01:03:22.429Z,3.53
2019-03-11T01:06:08.902Z,4.00
2019-03-11T01:08:55.491Z,3.87
2019-03-11T01:11:42.319Z,3.03
2019-03-11T01:14:29.306Z,3.50
2019-03-11T01:17:16.073Z,3.00
2019-03-11T01:20:02.716Z,2.87
2019-03-11T01:22:49.202Z,2.70
2019-03-11T01:25:36.175Z,2.80
2019-03-11T01:28:23.023Z,3.27
2019-03-11T01:31:09.423Z,4.10
2019-03-11T01:33:56.443Z,3.20
2019-03-11T01:36:42.924Z,2.13
2019-03-11T01:39:29.285Z,2.70
2019-03-11T01:42:16.012Z,3.00
2019-03-11T01:45:02.783Z,3.43
2019-03-11T01:47:49.280Z,3.23
2019-03-11T01:50:36.365Z,3.40
2019-03-11T01:53:22.864Z,4.07
2019-03-11T01:56:09.582Z,5.40
2019-03-11T01:58:56.662Z,6.27
2019-03-11T02:01:43.233Z,7.03
2019-03-11T02:04:29.866Z,7.03
2019-03-11T02:07:16.854Z,8.50
2019-03-11T02:10:04.332Z,8.93
2019-03-11T02:12:50.807Z,8.97
2019-03-11T02:15:38.641Z,9.83
2019-03-11T02:18:25.670Z,9.30
2019-03-11T02:21:12.665Z,10.07
2019-03-11T02:23:59.507Z,9.10
2019-03-11T02:26:45.794Z,10.10
2019-03-11T02:29:32.349Z,8.60
2019-03-11T02:32:19.696Z,8.03
2019-03-11T02:35:06.286Z,6.50
2019-03-11T02:37:53.162Z,5.90
2019-03-11T02:40:40.216Z,5.63
2019-03-11T02:43:26.536Z,5.13
2019-03-11T02:46:13.745Z,6.00
2019-03-11T02:49:00.581Z,5.17
2019-03-11T02:51:47.097Z,5.07
2019-03-11T02:54:34.150Z,4.43
2019-03-11T02:57:21.448Z,4.50
2019-03-11T03:00:09.548Z,4.30
2019-03-11T03:03:06.016Z,4.47
2019-03-11T03:05:57.729Z,4.50
2019-03-11T03:08:44.333Z,4.00
2019-03-11T03:11:30.932Z,4.80
2019-03-11T03:14:17.707Z,4.30
2019-03-11T03:17:04.881Z,4.47
2019-03-11T03:19:52.776Z,4.37
2019-03-11T03:22:39.164Z,4.73
2019-03-11T03:25:33.719Z,4.70
2019-03-11T03:28:14.777Z,5.07
2019-03-11T03:31:01.026Z,4.73
2019-03-11T03:33:47.781Z,5.63
2019-03-11T03:36:34.505Z,5.97
2019-03-11T03:39:20.979Z,5.00
2019-03-11T03:42:12.763Z,5.00
2019-03-11T03:45:39.233Z,5.30
2019-03-11T03:48:26.571Z,5.23
2019-03-11T03:51:14.087Z,4.70
2019-03-11T03:54:00.550Z,5.57
2019-03-11T03:56:47.284Z,4.80
2019-03-11T03:59:34.176Z,5.30
2019-03-11T04:02:21.026Z,5.07
2019-03-11T04:05:08.625Z,6.27
2019-03-11T04:07:55.544Z,4.90
2019-03-11T04:10:42.387Z,4.37
2019-03-11T04:13:28.968Z,5.23
2019-03-11T04:16:15.590Z,4.90
2019-03-11T04:19:02.827Z,5.27
2019-03-11T04:21:49.448Z,5.27
2019-03-11T04:24:36.508Z,5.60
2019-03-11T04:27:22.928Z,5.53
2019-03-11T04:30:12.476Z,4.77
2019-03-11T04:32:59.269Z,4.67
2019-03-11T04:35:46.016Z,4.57
2019-03-11T04:38:32.415Z,4.97
2019-03-11T04:41:19.531Z,5.53
2019-03-11T04:44:06.896Z,4.80
2019-03-11T04:46:54.104Z,4.97
2019-03-11T04:49:41.032Z,5.17
2019-03-11T04:52:28.707Z,5.13
2019-03-11T04:55:15.802Z,4.90
2019-03-11T04:58:02.956Z,5.30
2019-03-11T05:00:49.800Z,4.70
2019-03-11T05:03:36.435Z,5.70
2019-03-11T05:06:23.584Z,5.30
2019-03-11T05:09:10.675Z,5.20
2019-03-11T05:11:58.123Z,4.50
2019-03-11T05:14:45.519Z,4.90
2019-03-11T05:17:32.377Z,4.40
2019-03-11T05:20:18.908Z,5.10
2019-03-11T05:23:06.028Z,5.23
2019-03-11T05:25:55.714Z,4.00
2019-03-11T05:28:42.744Z,4.37
2019-03-11T05:31:29.691Z,4.07
2019-03-11T05:34:18.503Z,4.53
2019-03-11T05:37:05.187Z,4.10
2019-03-11T05:39:52.026Z,4.37
2019-03-11T05:42:38.620Z,3.73
2019-03-11T05:45:25.373Z,4.03
2019-03-11T05:48:12.324Z,4.50
2019-03-11T05:50:58.832Z,4.67
2019-03-11T05:53:45.668Z,3.90
2019-03-11T05:56:32.900Z,4.20
2019-03-11T05:59:19.840Z,5.00
2019-03-11T06:02:07.533Z,5.40
2019-03-11T06:04:54.538Z,4.27
2019-03-11T06:07:42.595Z,5.10
2019-03-11T06:10:30.104Z,5.00
2019-03-11T06:13:16.737Z,5.37
2019-03-11T06:16:07.781Z,5.20
2019-03-11T06:18:54.936Z,6.10
2019-03-11T06:22:01.000Z,4.70
2019-03-11T06:24:48.485Z,5.50
2019-03-11T06:27:35.002Z,4.37
2019-03-11T06:30:21.716Z,4.60
2019-03-11T06:33:08.548Z,5.03
2019-03-11T06:35:57.732Z,4.57
2019-03-11T06:38:44.397Z,4.47
2019-03-11T06:41:32.545Z,3.57
2019-03-11T06:44:21.965Z,3.80
2019-03-11T06:47:08.505Z,4.20
2019-03-11T06:49:59.220Z,5.90
2019-03-11T06:52:45.761Z,4.67
2019-03-11T06:55:33.160Z,5.50
2019-03-11T06:58:20.262Z,6.10
2019-03-11T07:01:08.187Z,5.50
2019-03-11T07:03:55.763Z,6.10
2019-03-11T07:06:42.803Z,7.37
2019-03-11T07:09:30.076Z,6.40
2019-03-11T07:12:17.283Z,5.47
2019-03-11T07:15:12.767Z,5.33
2019-03-11T07:18:07.233Z,4.73
2019-03-11T07:20:56.449Z,4.17
2019-03-11T07:23:43.626Z,4.70
2019-03-11T07:26:31.973Z,4.70
2019-03-11T07:29:18.730Z,4.40
2019-03-11T07:32:05.527Z,4.43
2019-03-11T07:34:52.354Z,5.20
2019-03-11T07:37:41.210Z,4.00
2019-03-11T07:40:30.058Z,4.00
2019-03-11T07:43:15.599Z,5.40
2019-03-11T07:46:02.302Z,5.47
2019-03-11T07:48:48.921Z,6.47
2019-03-11T07:51:38.818Z,5.10
2019-03-11T07:54:35.545Z,5.97
2019-03-11T07:57:13.606Z,8.20
2019-03-11T08:00:00.686Z,9.57
2019-03-11T08:02:47.304Z,7.67
2019-03-11T08:05:34.043Z,8.67
2019-03-11T08:08:24.228Z,8.00
2019-03-11T08:11:11.828Z,7.77
2019-03-11T08:13:59.147Z,6.60
2019-03-11T08:16:47.213Z,7.20
2019-03-11T08:19:34.057Z,6.00
2019-03-11T08:22:20.866Z,6.53
2019-03-11T08:25:08.304Z,6.67
2019-03-11T08:27:54.903Z,6.87
2019-03-11T08:30:44.883Z,5.47
2019-03-11T08:33:31.715Z,5.87
2019-03-11T08:36:18.399Z,5.90
2019-03-11T08:39:09.260Z,5.73
2019-03-11T08:41:59.307Z,6.97
2019-03-11T08:44:45.820Z,7.50
2019-03-11T08:47:32.627Z,9.13
2019-03-11T08:50:19.864Z,7.90
2019-03-11T08:53:06.435Z,8.50
2019-03-11T08:55:54.625Z,8.97
2019-03-11T08:58:41.761Z,9.20
2019-03-11T09:01:30.832Z,10.03
2019-03-11T09:04:17.247Z,9.30
2019-03-11T09:07:04.060Z,9.77
2019-03-11T09:09:50.760Z,10.83
2019-03-11T09:12:40.979Z,10.90
2019-03-11T09:15:27.647Z,11.77
2019-03-11T09:18:13.978Z,11.10
2019-03-11T09:21:04.824Z,10.13
2019-03-11T09:23:51.420Z,10.13
2019-03-11T09:26:39.246Z,10.47
2019-03-11T09:29:25.647Z,10.43
2019-03-11T09:32:13.868Z,10.40
2019-03-11T09:35:00.532Z,10.10
2019-03-11T09:37:47.103Z,10.57
2019-03-11T09:40:33.987Z,9.37
2019-03-11T09:43:22.183Z,9.23
2019-03-11T09:46:08.603Z,8.83
2019-03-11T09:48:55.772Z,9.07
2019-03-11T09:51:43.588Z,8.90
2019-03-11T09:54:30.577Z,9.73
2019-03-11T09:57:18.459Z,10.23
2019-03-11T10:00:08.312Z,10.00
2019-03-11T10:02:54.642Z,10.37
2019-03-11T10:05:41.565Z,10.50
2019-03-11T10:08:28.256Z,10.10
2019-03-11T10:11:15.087Z,9.30
2019-03-11T10:14:02.800Z,9.20
2019-03-11T10:16:50.544Z,9.67
2019-03-11T10:19:37.217Z,9.33
2019-03-11T10:22:23.799Z,9.73
2019-03-11T10:25:10.897Z,9.83
2019-03-11T10:27:57.767Z,8.33
2019-03-11T10:30:44.584Z,8.77
2019-03-11T10:33:31.148Z,9.43
2019-03-11T10:36:21.222Z,8.73
2019-03-11T10:39:08.415Z,12.10
2019-03-11T10:41:54.563Z,12.53
2019-03-11T10:44:41.704Z,9.97
2019-03-11T10:47:28.368Z,9.07
2019-03-11T10:50:14.848Z,8.97
2019-03-11T10:53:01.829Z,7.53
2019-03-11T10:55:48.240Z,6.53
2019-03-11T10:58:42.889Z,7.43
2019-03-11T11:01:29.243Z,7.73
2019-03-11T11:04:15.959Z,7.63
2019-03-11T11:07:03.075Z,6.27
2019-03-11T11:09:49.612Z,6.60
2019-03-11T11:12:37.305Z,7.17
2019-03-11T11:15:26.107Z,6.47
2019-03-11T11:18:13.165Z,6.17
2019-03-11T11:20:59.728Z,5.97
2019-03-11T11:23:46.838Z,5.17
2019-03-11T11:26:38.656Z,4.70
2019-03-11T11:29:25.020Z,4.23
2019-03-11T11:32:11.445Z,3.80
2019-03-11T11:34:58.580Z,4.07
2019-03-11T11:37:45.149Z,4.33
2019-03-11T11:40:31.424Z,4.20
2019-03-11T11:43:17.871Z,4.80
2019-03-11T11:46:05.002Z,4.60
2019-03-11T11:48:51.659Z,4.30
2019-03-11T11:51:38.653Z,5.17
2019-03-11T11:54:25.490Z,4.67
2019-03-11T11:57:11.677Z,4.23
2019-03-11T11:59:59.844Z,4.10
2019-03-11T12:02:46.327Z,4.10
2019-03-11T12:05:32.434Z,3.97
2019-03-11T12:08:18.955Z,3.93
2019-03-11T12:11:05.728Z,4.23
2019-03-11T12:13:51.987Z,3.50
2019-03-11T12:16:38.233Z,3.47
2019-03-11T12:19:25.218Z,4.50
2019-03-11T12:22:13.095Z,3.07
2019-03-11T12:24:59.781Z,3.40
2019-03-11T12:27:53.559Z,2.63
2019-03-11T12:30:34.854Z,2.27
2019-03-11T12:33:21.692Z,3.40
2019-03-11T12:36:09.461Z,2.93
2019-03-11T12:38:59.249Z,3.63
2019-03-11T12:41:45.667Z,3.00
2019-03-11T12:44:32.413Z,3.63
2019-03-11T12:47:21.307Z,3.00
2019-03-11T12:50:10.825Z,4.10
2019-03-11T12:52:57.373Z,3.97
2019-03-11T12:55:43.678Z,4.00
2019-03-11T12:58:40.799Z,4.07
2019-03-11T13:01:18.060Z,4.27
2019-03-11T13:04:04.542Z,2.97
2019-03-11T13:06:51.414Z,3.63
2019-03-11T13:09:37.618Z,3.40
2019-03-11T13:12:24.087Z,3.47
2019-03-11T13:15:10.402Z,3.33
2019-03-11T13:18:18.519Z,3.97
2019-03-11T13:21:09.078Z,3.40
2019-03-11T13:23:55.436Z,3.53
2019-03-11T13:26:42.873Z,4.33
2019-03-11T13:29:29.492Z,4.67
2019-03-11T13:32:16.747Z,4.77
2019-03-11T13:35:03.757Z,4.57
2019-03-11T13:37:50.128Z,4.03
2019-03-11T13:40:36.386Z,4.30
2019-03-11T13:43:24.581Z,4.10
2019-03-11T13:46:13.971Z,4.30
2019-03-11T13:49:00.875Z,3.73
2019-03-11T13:51:48.907Z,2.60
2019-03-11T13:54:35.718Z,3.00
2019-03-11T13:57:22.455Z,3.30
2019-03-11T14:00:09.659Z,2.27
2019-03-11T14:02:57.287Z,1.93
2019-03-11T14:05:44.259Z,2.00
2019-03-11T14:08:30.888Z,2.00
2019-03-11T14:11:20.161Z,2.10
2019-03-11T14:14:06.874Z,2.60
2019-03-11T14:16:58.191Z,2.50
2019-03-11T14:19:44.632Z,1.90
2019-03-11T14:22:31.681Z,2.37
2019-03-11T14:25:17.966Z,2.00
2019-03-11T14:28:04.467Z,2.03
2019-03-11T14:30:51.483Z,1.90
2019-03-11T14:33:38.108Z,2.23
2019-03-11T14:36:33.668Z,3.87
2019-03-11T14:39:28.248Z,3.43
2019-03-11T14:42:16.102Z,2.10
2019-03-11T14:45:04.259Z,2.37
2019-03-11T14:47:50.883Z,2.63
2019-03-11T14:50:37.475Z,2.17
2019-03-11T14:53:27.564Z,1.73
2019-03-11T14:56:14.007Z,2.00
2019-03-11T14:59:00.636Z,2.13
2019-03-11T15:01:47.374Z,2.37
2019-03-11T15:04:34.506Z,1.90
2019-03-11T15:07:20.512Z,1.80
2019-03-11T15:10:08.267Z,1.83
2019-03-11T15:12:54.926Z,3.30
2019-03-11T15:15:41.450Z,2.30
2019-03-11T15:18:31.076Z,1.80
2019-03-11T15:21:17.534Z,1.83
2019-03-11T15:24:03.964Z,3.77
2019-03-11T15:26:59.352Z,2.80
2019-03-11T15:29:54.201Z,1.83
2019-03-11T15:32:42.403Z,1.93
2019-03-11T15:35:29.602Z,2.60
2019-03-11T15:38:15.924Z,2.37
2019-03-11T15:41:02.775Z,3.33
2019-03-11T15:43:51.585Z,2.70
2019-03-11T15:46:39.591Z,2.93
2019-03-11T15:49:27.956Z,2.87
2019-03-11T15:52:14.756Z,2.97
2019-03-11T15:55:03.604Z,3.33
2019-03-11T15:57:50.357Z,3.07
2019-03-11T16:04:39.786Z,3.03
2019-03-11T16:07:26.114Z,2.57
2019-03-11T16:10:17.139Z,2.30
2019-03-11T16:13:01.842Z,2.60
2019-03-11T16:15:48.216Z,3.67
2019-03-11T16:18:35.345Z,2.60
2019-03-11T16:21:22.046Z,2.87
2019-03-11T16:24:08.556Z,3.40
2019-03-11T16:26:55.469Z,3.17
2019-03-11T16:29:42.139Z,2.83
2019-03-11T16:32:36.875Z,3.00
2019-03-11T16:35:21.480Z,3.43
2019-03-11T16:38:10.624Z,2.97
2019-03-11T16:40:57.728Z,2.60
2019-03-11T16:43:44.631Z,2.93
2019-03-11T16:46:30.761Z,3.13
2019-03-11T16:49:18.363Z,2.80
2019-03-11T16:52:04.692Z,2.83
2019-03-11T16:54:51.527Z,2.60
2019-03-11T16:57:38.663Z,3.07
2019-03-11T17:00:31.050Z,4.00
2019-03-11T17:03:18.071Z,2.60
2019-03-11T17:06:05.414Z,3.07
2019-03-11T17:08:51.934Z,3.30
2019-03-11T17:11:52.896Z,4.53
2019-03-11T17:14:40.037Z,3.97
2019-03-11T17:17:26.707Z,2.77
2019-03-11T17:20:16.065Z,2.77
2019-03-11T17:23:10.048Z,2.50
2019-03-11T17:25:56.579Z,1.90
2019-03-11T17:28:52.358Z,1.83
2019-03-11T17:31:58.527Z,1.70
2019-03-11T17:34:46.181Z,2.80
2019-03-11T17:37:32.959Z,2.07
2019-03-11T17:40:22.147Z,2.10
2019-03-11T17:43:10.787Z,2.20
2019-03-11T17:45:57.926Z,2.33
2019-03-11T17:48:44.645Z,2.00
2019-03-11T17:51:31.873Z,3.20
2019-03-11T17:54:18.380Z,2.30
2019-03-11T17:57:08.303Z,2.37
2019-03-11T17:59:57.261Z,2.00
2019-03-11T18:02:43.923Z,2.57
2019-03-11T18:05:32.847Z,2.20
2019-03-11T18:08:23.093Z,3.80
2019-03-11T18:11:10.011Z,2.23
2019-03-11T18:13:56.412Z,2.80
2019-03-11T18:16:42.953Z,2.50
2019-03-11T18:19:29.843Z,3.33
2019-03-11T18:22:17.481Z,3.07
2019-03-11T18:25:04.322Z,2.37
2019-03-11T18:27:51.279Z,2.70
2019-03-11T18:30:37.770Z,2.50
2019-03-11T18:33:24.405Z,3.67
2019-03-11T18:36:11.554Z,2.30
2019-03-11T18:38:58.772Z,2.10
2019-03-11T18:41:46.059Z,2.23
2019-03-11T18:44:35.462Z,3.13
2019-03-11T18:47:21.858Z,2.43
2019-03-11T18:50:10.478Z,3.43
2019-03-11T18:52:57.477Z,2.90
2019-03-11T18:55:44.116Z,2.87
2019-03-11T18:58:31.715Z,2.30
2019-03-11T19:01:26.289Z,2.70
2019-03-11T19:04:13.528Z,2.10
2019-03-11T19:07:02.475Z,2.20
2019-03-11T19:09:51.077Z,2.60
2019-03-11T19:12:37.561Z,2.27
2019-03-11T19:15:24.106Z,2.50
2019-03-11T19:18:10.870Z,2.50
2019-03-11T19:20:58.821Z,2.53
2019-03-11T19:23:46.565Z,2.70
2019-03-11T19:26:38.883Z,2.10
2019-03-11T19:29:26.690Z,2.40
2019-03-11T19:32:13.626Z,2.23
2019-03-11T19:34:59.942Z,2.17
2019-03-11T19:37:47.295Z,2.80
2019-03-11T19:40:39.903Z,2.20
2019-03-11T19:43:29.227Z,2.40
2019-03-11T19:46:16.137Z,2.33
2019-03-11T19:49:03.598Z,2.70
2019-03-11T19:51:49.914Z,2.27
2019-03-11T19:54:36.448Z,2.67
2019-03-11T19:57:23.669Z,2.60
2019-03-11T20:00:13.616Z,2.30
2019-03-11T20:02:59.950Z,4.07
2019-03-11T20:05:47.403Z,3.37
2019-03-11T20:08:34.258Z,2.70
2019-03-11T20:11:21.359Z,2.93
2019-03-11T20:14:12.070Z,3.60
2019-03-11T20:16:59.043Z,4.50
2019-03-11T20:19:49.810Z,4.73
2019-03-11T20:22:36.873Z,4.43
2019-03-11T20:25:26.717Z,4.67
2019-03-11T20:28:13.346Z,4.80
2019-03-11T20:31:00.916Z,5.20
2019-03-11T20:33:50.443Z,4.70
2019-03-11T20:36:40.117Z,4.57
2019-03-11T20:39:30.119Z,5.40
2019-03-11T20:42:17.243Z,6.00
2019-03-11T20:45:07.826Z,4.73
2019-03-11T20:47:54.478Z,5.10
2019-03-11T20:50:44.394Z,5.00
2019-03-11T20:53:33.445Z,4.50
2019-03-11T20:56:20.678Z,3.33
2019-03-11T20:59:07.694Z,3.93
2019-03-11T21:01:57.869Z,3.43
2019-03-11T21:04:48.493Z,3.87
2019-03-11T21:07:43.950Z,4.20
2019-03-11T21:10:30.978Z,4.30
2019-03-11T21:13:23.875Z,4.80
2019-03-11T21:16:10.645Z,3.70
2019-03-11T21:18:57.486Z,3.67
2019-03-11T21:21:44.371Z,5.90
2019-03-11T21:24:33.399Z,6.23
2019-03-11T21:27:20.228Z,3.87
2019-03-11T21:30:10.963Z,4.83
2019-03-11T21:32:58.673Z,4.13
2019-03-11T21:35:45.255Z,4.27
2019-03-11T21:38:31.929Z,4.30
2019-03-11T21:41:23.032Z,4.27
2019-03-11T21:44:09.791Z,4.83
2019-03-11T21:46:59.670Z,6.03
2019-03-11T21:49:46.314Z,5.50
2019-03-11T21:52:32.905Z,6.77
2019-03-11T21:55:19.757Z,4.83
2019-03-11T21:58:13.188Z,4.60
2019-03-11T22:00:54.705Z,5.60
2019-03-11T22:03:41.615Z,3.93
2019-03-11T22:06:30.764Z,4.30
2019-03-11T22:09:16.832Z,4.07
2019-03-11T22:12:03.738Z,3.70
2019-03-11T22:14:51.712Z,4.00
2019-03-11T22:17:41.445Z,3.30
2019-03-11T22:20:28.625Z,3.53
2019-03-11T22:23:15.331Z,4.00
2019-03-11T22:26:01.957Z,4.10
2019-03-11T22:28:48.772Z,3.87
2019-03-11T22:31:35.642Z,4.43
2019-03-11T22:34:22.110Z,4.40
2019-03-11T22:37:09.602Z,4.87
2019-03-11T22:39:56.281Z,4.77
2019-03-11T22:42:43.638Z,5.27
2019-03-11T22:45:30.764Z,4.23
2019-03-11T22:48:17.328Z,5.07
2019-03-11T22:51:03.964Z,4.67
2019-03-11T22:53:53.009Z,4.40
2019-03-11T22:56:39.311Z,3.23
2019-03-11T22:59:25.991Z,4.57
2019-03-11T23:02:14.301Z,3.90
2019-03-11T23:05:00.995Z,4.20
2019-03-11T23:07:47.627Z,4.63
2019-03-11T23:10:41.721Z,4.80
2019-03-11T23:13:31.463Z,4.83
2019-03-11T23:16:20.091Z,4.40
2019-03-11T23:19:10.119Z,5.00
2019-03-11T23:21:59.667Z,3.70
2019-03-11T23:24:46.299Z,4.43
2019-03-11T23:27:35.206Z,4.23
2019-03-11T23:30:21.699Z,4.30
2019-03-11T23:33:08.607Z,4.23
2019-03-11T23:35:56.707Z,4.87
2019-03-11T23:38:43.223Z,17.23
2019-03-11T23:41:30.012Z,39.57
2019-03-11T23:44:17.449Z,56.27
2019-03-11T23:47:03.983Z,65.53
2019-03-11T23:49:50.591Z,80.07
2019-03-11T23:52:37.334Z,72.03
2019-03-11T23:55:23.738Z,53.30
2019-03-11T23:58:10.775Z,41.47
